sensor_id;sensor_type;location;lat;lon;timestamp;P1;durP1;ratioP1;P2;durP2;ratioP2
49460;SDS011;35355;49.198;-0.368;2022-09-17T00:00:38;1.48;;;0.30;;
49460;SDS011;35355;49.198;-0.368;2022-09-17T00:03:04;1.98;;;0.40;;
49460;SDS011;35355;49.198;-0.368;2022-09-17T00:05:30;2.15;;;0.30;;
49460;SDS011;35355;49.198;-0.368;2022-09-17T00:07:56;1.23;;;0.60;;
49460;SDS011;35355;49.198;-0.368;2022-09-17T00:10:21;2.15;;;0.35;;
49460;SDS011;35355;49.198;-0.368;2022-09-17T00:12:48;2.28;;;0.20;;
49460;SDS011;35355;49.198;-0.368;2022-09-17T00:15:14;1.75;;;0.75;;
49460;SDS011;35355;49.198;-0.368;2022-09-17T00:17:40;1.35;;;0.52;;
49460;SDS011;35355;49.198;-0.368;2022-09-17T00:20:06;1.45;;;0.30;;
49460;SDS011;35355;49.198;-0.368;2022-09-17T00:22:36;3.50;;;0.40;;
49460;SDS011;35355;49.198;-0.368;2022-09-17T00:25:03;0.75;;;0.17;;
49460;SDS011;35355;49.198;-0.368;2022-09-17T00:27:29;2.55;;;0.50;;
49460;SDS011;35355;49.198;-0.368;2022-09-17T00:29:55;4.47;;;0.40;;
49460;SDS011;35355;49.198;-0.368;2022-09-17T00:32:20;0.70;;;0.20;;
49460;SDS011;35355;49.198;-0.368;2022-09-17T00:34:47;1.17;;;0.35;;
49460;SDS011;35355;49.198;-0.368;2022-09-17T00:37:13;3.95;;;0.50;;
49460;SDS011;35355;49.198;-0.368;2022-09-17T00:39:39;3.05;;;0.40;;
49460;SDS011;35355;49.198;-0.368;2022-09-17T00:42:05;1.25;;;0.30;;
49460;SDS011;35355;49.198;-0.368;2022-09-17T00:49:56;2.42;;;0.65;;
49460;SDS011;35355;49.198;-0.368;2022-09-17T00:52:37;0.68;;;0.13;;
49460;SDS011;35355;49.198;-0.368;2022-09-17T00:55:29;1.75;;;0.28;;
49460;SDS011;35355;49.198;-0.368;2022-09-17T00:57:54;0.55;;;0.10;;
49460;SDS011;35355;49.198;-0.368;2022-09-17T01:00:24;1.58;;;0.22;;
49460;SDS011;35355;49.198;-0.368;2022-09-17T01:02:51;0.95;;;0.20;;
49460;SDS011;35355;49.198;-0.368;2022-09-17T01:05:19;1.23;;;0.30;;
49460;SDS011;35355;49.198;-0.368;2022-09-17T01:08:44;2.00;;;0.20;;
49460;SDS011;35355;49.198;-0.368;2022-09-17T01:11:13;1.85;;;0.20;;
49460;SDS011;35355;49.198;-0.368;2022-09-17T01:16:21;0.82;;;0.10;;
49460;SDS011;35355;49.198;-0.368;2022-09-17T01:22:41;1.27;;;0.20;;
49460;SDS011;35355;49.198;-0.368;2022-09-17T01:35:24;1.90;;;0.22;;
49460;SDS011;35355;49.198;-0.368;2022-09-17T01:41:04;1.33;;;0.28;;
49460;SDS011;35355;49.198;-0.368;2022-09-17T01:43:48;2.08;;;0.40;;
49460;SDS011;35355;49.198;-0.368;2022-09-17T01:48:58;0.73;;;0.20;;
49460;SDS011;35355;49.198;-0.368;2022-09-17T01:51:46;7.43;;;0.35;;
49460;SDS011;35355;49.198;-0.368;2022-09-17T01:54:17;2.92;;;0.32;;
49460;SDS011;35355;49.198;-0.368;2022-09-17T01:56:49;1.08;;;0.20;;
49460;SDS011;35355;49.198;-0.368;2022-09-17T02:01:52;0.98;;;0.20;;
49460;SDS011;35355;49.198;-0.368;2022-09-17T02:04:27;0.55;;;0.20;;
49460;SDS011;35355;49.198;-0.368;2022-09-17T02:06:59;1.95;;;0.40;;
49460;SDS011;35355;49.198;-0.368;2022-09-17T02:12:02;0.70;;;0.20;;
49460;SDS011;35355;49.198;-0.368;2022-09-17T02:14:56;1.58;;;0.20;;
49460;SDS011;35355;49.198;-0.368;2022-09-17T02:20:08;0.85;;;0.15;;
49460;SDS011;35355;49.198;-0.368;2022-09-17T02:25:47;2.33;;;0.50;;
49460;SDS011;35355;49.198;-0.368;2022-09-17T02:28:25;1.73;;;0.30;;
49460;SDS011;35355;49.198;-0.368;2022-09-17T02:30:58;2.10;;;0.28;;
49460;SDS011;35355;49.198;-0.368;2022-09-17T02:33:23;2.83;;;0.50;;
49460;SDS011;35355;49.198;-0.368;2022-09-17T02:35:50;4.85;;;0.20;;
49460;SDS011;35355;49.198;-0.368;2022-09-17T02:38:23;2.05;;;0.30;;
49460;SDS011;35355;49.198;-0.368;2022-09-17T02:40:51;0.65;;;0.10;;
49460;SDS011;35355;49.198;-0.368;2022-09-17T02:49:00;1.63;;;0.30;;
49460;SDS011;35355;49.198;-0.368;2022-09-17T02:54:23;2.03;;;0.30;;
49460;SDS011;35355;49.198;-0.368;2022-09-17T03:00:06;3.50;;;0.28;;
49460;SDS011;35355;49.198;-0.368;2022-09-17T03:05:07;5.30;;;0.40;;
49460;SDS011;35355;49.198;-0.368;2022-09-17T03:07:33;1.75;;;0.45;;
49460;SDS011;35355;49.198;-0.368;2022-09-17T03:09:59;0.30;;;0.20;;
49460;SDS011;35355;49.198;-0.368;2022-09-17T03:12:24;3.58;;;0.30;;
49460;SDS011;35355;49.198;-0.368;2022-09-17T03:14:50;5.95;;;1.92;;
49460;SDS011;35355;49.198;-0.368;2022-09-17T03:17:16;0.60;;;0.20;;
49460;SDS011;35355;49.198;-0.368;2022-09-17T03:19:41;3.13;;;0.20;;
49460;SDS011;35355;49.198;-0.368;2022-09-17T03:22:07;2.00;;;0.30;;
49460;SDS011;35355;49.198;-0.368;2022-09-17T03:24:32;3.47;;;0.30;;
49460;SDS011;35355;49.198;-0.368;2022-09-17T03:26:57;4.57;;;0.30;;
49460;SDS011;35355;49.198;-0.368;2022-09-17T03:29:23;3.97;;;0.20;;
49460;SDS011;35355;49.198;-0.368;2022-09-17T03:31:48;4.03;;;0.43;;
49460;SDS011;35355;49.198;-0.368;2022-09-17T03:34:13;1.90;;;0.22;;
49460;SDS011;35355;49.198;-0.368;2022-09-17T03:36:39;2.75;;;0.20;;
49460;SDS011;35355;49.198;-0.368;2022-09-17T03:39:04;5.05;;;0.30;;
49460;SDS011;35355;49.198;-0.368;2022-09-17T03:41:30;1.25;;;0.30;;
49460;SDS011;35355;49.198;-0.368;2022-09-17T03:43:55;3.38;;;1.05;;
49460;SDS011;35355;49.198;-0.368;2022-09-17T03:46:20;3.58;;;0.40;;
49460;SDS011;35355;49.198;-0.368;2022-09-17T03:48:46;1.38;;;0.20;;
49460;SDS011;35355;49.198;-0.368;2022-09-17T03:51:12;2.13;;;0.40;;
49460;SDS011;35355;49.198;-0.368;2022-09-17T03:53:37;0.70;;;0.20;;
49460;SDS011;35355;49.198;-0.368;2022-09-17T03:56:03;1.30;;;0.25;;
49460;SDS011;35355;49.198;-0.368;2022-09-17T03:58:30;2.83;;;0.30;;
49460;SDS011;35355;49.198;-0.368;2022-09-17T04:00:57;3.45;;;0.35;;
49460;SDS011;35355;49.198;-0.368;2022-09-17T04:03:22;2.30;;;0.40;;
49460;SDS011;35355;49.198;-0.368;2022-09-17T04:05:49;0.88;;;0.20;;
49460;SDS011;35355;49.198;-0.368;2022-09-17T04:08:14;3.50;;;0.40;;
49460;SDS011;35355;49.198;-0.368;2022-09-17T04:10:40;6.25;;;0.30;;
49460;SDS011;35355;49.198;-0.368;2022-09-17T04:13:05;3.33;;;0.20;;
49460;SDS011;35355;49.198;-0.368;2022-09-17T04:15:31;3.00;;;0.40;;
49460;SDS011;35355;49.198;-0.368;2022-09-17T04:17:56;3.13;;;0.20;;
49460;SDS011;35355;49.198;-0.368;2022-09-17T04:20:22;2.22;;;0.50;;
49460;SDS011;35355;49.198;-0.368;2022-09-17T04:22:48;1.02;;;0.15;;
49460;SDS011;35355;49.198;-0.368;2022-09-17T04:25:14;2.63;;;0.35;;
49460;SDS011;35355;49.198;-0.368;2022-09-17T04:27:39;4.65;;;0.60;;
49460;SDS011;35355;49.198;-0.368;2022-09-17T04:30:05;2.40;;;0.30;;
49460;SDS011;35355;49.198;-0.368;2022-09-17T04:32:31;2.65;;;0.20;;
49460;SDS011;35355;49.198;-0.368;2022-09-17T04:34:57;1.15;;;0.30;;
49460;SDS011;35355;49.198;-0.368;2022-09-17T04:37:22;2.92;;;0.40;;
49460;SDS011;35355;49.198;-0.368;2022-09-17T04:39:49;2.55;;;0.30;;
49460;SDS011;35355;49.198;-0.368;2022-09-17T04:42:15;0.85;;;0.20;;
49460;SDS011;35355;49.198;-0.368;2022-09-17T04:44:40;4.53;;;0.38;;
49460;SDS011;35355;49.198;-0.368;2022-09-17T04:47:06;1.80;;;0.20;;
49460;SDS011;35355;49.198;-0.368;2022-09-17T04:49:31;4.55;;;0.20;;
49460;SDS011;35355;49.198;-0.368;2022-09-17T04:51:57;9.68;;;0.85;;
49460;SDS011;35355;49.198;-0.368;2022-09-17T04:54:22;1.48;;;0.20;;
49460;SDS011;35355;49.198;-0.368;2022-09-17T04:56:48;3.45;;;0.40;;
49460;SDS011;35355;49.198;-0.368;2022-09-17T04:59:13;0.43;;;0.10;;
49460;SDS011;35355;49.198;-0.368;2022-09-17T05:01:39;0.90;;;0.40;;
49460;SDS011;35355;49.198;-0.368;2022-09-17T05:04:05;0.73;;;0.10;;
49460;SDS011;35355;49.198;-0.368;2022-09-17T05:06:30;1.83;;;0.20;;
49460;SDS011;35355;49.198;-0.368;2022-09-17T05:08:56;0.95;;;0.20;;
49460;SDS011;35355;49.198;-0.368;2022-09-17T05:11:21;3.70;;;0.30;;
49460;SDS011;35355;49.198;-0.368;2022-09-17T05:13:47;3.15;;;0.30;;
49460;SDS011;35355;49.198;-0.368;2022-09-17T05:16:12;2.55;;;0.50;;
49460;SDS011;35355;49.198;-0.368;2022-09-17T05:18:37;3.70;;;0.43;;
49460;SDS011;35355;49.198;-0.368;2022-09-17T05:41:54;1.60;;;0.45;;
49460;SDS011;35355;49.198;-0.368;2022-09-17T05:44:19;3.60;;;0.40;;
49460;SDS011;35355;49.198;-0.368;2022-09-17T05:46:45;2.60;;;0.30;;
49460;SDS011;35355;49.198;-0.368;2022-09-17T05:49:11;5.05;;;0.98;;
49460;SDS011;35355;49.198;-0.368;2022-09-17T05:51:39;5.72;;;0.50;;
49460;SDS011;35355;49.198;-0.368;2022-09-17T05:54:05;3.42;;;0.35;;
49460;SDS011;35355;49.198;-0.368;2022-09-17T05:56:30;3.53;;;0.40;;
49460;SDS011;35355;49.198;-0.368;2022-09-17T05:58:56;4.90;;;1.38;;
49460;SDS011;35355;49.198;-0.368;2022-09-17T06:01:22;5.57;;;0.57;;
49460;SDS011;35355;49.198;-0.368;2022-09-17T06:03:48;3.63;;;0.60;;
49460;SDS011;35355;49.198;-0.368;2022-09-17T06:06:13;1.30;;;0.30;;
49460;SDS011;35355;49.198;-0.368;2022-09-17T06:08:39;1.67;;;0.35;;
49460;SDS011;35355;49.198;-0.368;2022-09-17T06:11:05;3.72;;;1.25;;
49460;SDS011;35355;49.198;-0.368;2022-09-17T06:13:31;4.20;;;0.50;;
49460;SDS011;35355;49.198;-0.368;2022-09-17T06:15:58;2.67;;;0.60;;
49460;SDS011;35355;49.198;-0.368;2022-09-17T06:18:24;2.08;;;0.20;;
49460;SDS011;35355;49.198;-0.368;2022-09-17T06:20:53;7.68;;;0.75;;
49460;SDS011;35355;49.198;-0.368;2022-09-17T06:23:26;1.35;;;0.45;;
49460;SDS011;35355;49.198;-0.368;2022-09-17T06:25:56;3.72;;;1.10;;
49460;SDS011;35355;49.198;-0.368;2022-09-17T06:28:23;6.97;;;5.60;;
49460;SDS011;35355;49.198;-0.368;2022-09-17T06:30:49;9.55;;;5.68;;
49460;SDS011;35355;49.198;-0.368;2022-09-17T06:33:18;11.45;;;3.15;;
49460;SDS011;35355;49.198;-0.368;2022-09-17T06:35:44;3.72;;;1.27;;
49460;SDS011;35355;49.198;-0.368;2022-09-17T06:38:10;2.42;;;0.77;;
49460;SDS011;35355;49.198;-0.368;2022-09-17T06:40:35;4.40;;;0.80;;
49460;SDS011;35355;49.198;-0.368;2022-09-17T06:43:01;2.92;;;0.88;;
49460;SDS011;35355;49.198;-0.368;2022-09-17T06:45:26;3.50;;;1.02;;
49460;SDS011;35355;49.198;-0.368;2022-09-17T06:47:52;1.48;;;0.43;;
49460;SDS011;35355;49.198;-0.368;2022-09-17T06:50:17;3.17;;;1.10;;
49460;SDS011;35355;49.198;-0.368;2022-09-17T06:52:49;1.13;;;0.30;;
49460;SDS011;35355;49.198;-0.368;2022-09-17T06:55:17;2.47;;;0.20;;
49460;SDS011;35355;49.198;-0.368;2022-09-17T06:57:42;2.63;;;0.20;;
49460;SDS011;35355;49.198;-0.368;2022-09-17T07:00:09;0.98;;;0.35;;
49460;SDS011;35355;49.198;-0.368;2022-09-17T07:02:35;6.28;;;0.50;;
49460;SDS011;35355;49.198;-0.368;2022-09-17T07:05:00;3.22;;;0.20;;
49460;SDS011;35355;49.198;-0.368;2022-09-17T07:07:26;2.25;;;0.52;;
49460;SDS011;35355;49.198;-0.368;2022-09-17T07:09:52;1.50;;;0.25;;
49460;SDS011;35355;49.198;-0.368;2022-09-17T07:12:18;1.08;;;0.30;;
49460;SDS011;35355;49.198;-0.368;2022-09-17T07:14:43;3.95;;;0.57;;
49460;SDS011;35355;49.198;-0.368;2022-09-17T07:17:09;1.30;;;0.47;;
49460;SDS011;35355;49.198;-0.368;2022-09-17T07:19:34;0.98;;;0.22;;
49460;SDS011;35355;49.198;-0.368;2022-09-17T07:22:00;1.05;;;0.30;;
49460;SDS011;35355;49.198;-0.368;2022-09-17T07:24:25;3.75;;;0.40;;
49460;SDS011;35355;49.198;-0.368;2022-09-17T07:26:50;1.40;;;0.52;;
49460;SDS011;35355;49.198;-0.368;2022-09-17T07:29:16;4.57;;;0.50;;
49460;SDS011;35355;49.198;-0.368;2022-09-17T07:31:42;2.53;;;0.30;;
49460;SDS011;35355;49.198;-0.368;2022-09-17T07:34:08;0.90;;;0.15;;
49460;SDS011;35355;49.198;-0.368;2022-09-17T07:36:34;0.57;;;0.13;;
49460;SDS011;35355;49.198;-0.368;2022-09-17T07:38:59;1.20;;;0.32;;
49460;SDS011;35355;49.198;-0.368;2022-09-17T07:41:25;4.03;;;0.57;;
49460;SDS011;35355;49.198;-0.368;2022-09-17T07:43:51;2.05;;;0.60;;
49460;SDS011;35355;49.198;-0.368;2022-09-17T07:46:19;0.75;;;0.20;;
49460;SDS011;35355;49.198;-0.368;2022-09-17T07:48:46;1.45;;;0.30;;
49460;SDS011;35355;49.198;-0.368;2022-09-17T07:51:22;0.20;;;0.10;;
49460;SDS011;35355;49.198;-0.368;2022-09-17T07:53:50;2.28;;;0.38;;
49460;SDS011;35355;49.198;-0.368;2022-09-17T07:56:16;1.38;;;0.17;;
49460;SDS011;35355;49.198;-0.368;2022-09-17T07:58:42;2.25;;;0.65;;
49460;SDS011;35355;49.198;-0.368;2022-09-17T08:01:08;1.95;;;0.60;;
49460;SDS011;35355;49.198;-0.368;2022-09-17T08:03:35;7.00;;;0.20;;
49460;SDS011;35355;49.198;-0.368;2022-09-17T08:08:32;4.95;;;0.28;;
49460;SDS011;35355;49.198;-0.368;2022-09-17T08:11:10;0.90;;;0.20;;
49460;SDS011;35355;49.198;-0.368;2022-09-17T08:13:37;1.45;;;0.10;;
49460;SDS011;35355;49.198;-0.368;2022-09-17T08:16:04;2.72;;;0.30;;
49460;SDS011;35355;49.198;-0.368;2022-09-17T08:18:31;2.80;;;0.40;;
49460;SDS011;35355;49.198;-0.368;2022-09-17T08:20:57;1.55;;;0.63;;
49460;SDS011;35355;49.198;-0.368;2022-09-17T08:23:24;1.02;;;0.10;;
49460;SDS011;35355;49.198;-0.368;2022-09-17T08:25:51;0.25;;;0.13;;
49460;SDS011;35355;49.198;-0.368;2022-09-17T08:28:17;0.43;;;0.38;;
49460;SDS011;35355;49.198;-0.368;2022-09-17T08:30:42;4.90;;;0.30;;
49460;SDS011;35355;49.198;-0.368;2022-09-17T08:33:08;2.55;;;0.32;;
49460;SDS011;35355;49.198;-0.368;2022-09-17T08:35:33;0.50;;;0.20;;
49460;SDS011;35355;49.198;-0.368;2022-09-17T08:37:59;1.55;;;0.20;;
49460;SDS011;35355;49.198;-0.368;2022-09-17T08:40:24;2.08;;;0.20;;
49460;SDS011;35355;49.198;-0.368;2022-09-17T08:42:54;0.10;;;0.10;;
49460;SDS011;35355;49.198;-0.368;2022-09-17T08:45:23;4.90;;;0.22;;
49460;SDS011;35355;49.198;-0.368;2022-09-17T08:47:50;2.55;;;0.28;;
49460;SDS011;35355;49.198;-0.368;2022-09-17T08:50:26;1.50;;;0.20;;
49460;SDS011;35355;49.198;-0.368;2022-09-17T08:55:44;1.35;;;0.40;;
49460;SDS011;35355;49.198;-0.368;2022-09-17T09:06:51;2.13;;;0.20;;
49460;SDS011;35355;49.198;-0.368;2022-09-17T09:09:24;1.58;;;0.20;;
49460;SDS011;35355;49.198;-0.368;2022-09-17T09:12:05;2.22;;;0.13;;
49460;SDS011;35355;49.198;-0.368;2022-09-17T09:14:51;4.85;;;0.30;;
49460;SDS011;35355;49.198;-0.368;2022-09-17T09:17:21;1.40;;;0.20;;
49460;SDS011;35355;49.198;-0.368;2022-09-17T09:19:52;1.17;;;0.17;;
49460;SDS011;35355;49.198;-0.368;2022-09-17T09:25:12;1.33;;;0.28;;
49460;SDS011;35355;49.198;-0.368;2022-09-17T09:28:05;2.15;;;0.20;;
49460;SDS011;35355;49.198;-0.368;2022-09-17T09:30:50;2.13;;;0.30;;
49460;SDS011;35355;49.198;-0.368;2022-09-17T09:33:18;2.70;;;0.10;;
49460;SDS011;35355;49.198;-0.368;2022-09-17T09:35:51;2.80;;;0.30;;
49460;SDS011;35355;49.198;-0.368;2022-09-17T09:38:20;3.58;;;0.35;;
49460;SDS011;35355;49.198;-0.368;2022-09-17T09:41:19;1.60;;;0.20;;
49460;SDS011;35355;49.198;-0.368;2022-09-17T09:44:01;1.10;;;0.20;;
49460;SDS011;35355;49.198;-0.368;2022-09-17T09:49:41;1.25;;;0.25;;
49460;SDS011;35355;49.198;-0.368;2022-09-17T09:52:22;1.65;;;0.30;;
49460;SDS011;35355;49.198;-0.368;2022-09-17T10:00:22;1.27;;;0.50;;
49460;SDS011;35355;49.198;-0.368;2022-09-17T10:02:51;1.38;;;0.20;;
49460;SDS011;35355;49.198;-0.368;2022-09-17T10:05:21;1.73;;;0.20;;
49460;SDS011;35355;49.198;-0.368;2022-09-17T10:07:47;1.63;;;0.20;;
49460;SDS011;35355;49.198;-0.368;2022-09-17T10:10:13;1.15;;;0.20;;
49460;SDS011;35355;49.198;-0.368;2022-09-17T10:12:38;0.52;;;0.10;;
49460;SDS011;35355;49.198;-0.368;2022-09-17T10:15:37;3.80;;;0.25;;
49460;SDS011;35355;49.198;-0.368;2022-09-17T10:18:09;1.40;;;0.20;;
49460;SDS011;35355;49.198;-0.368;2022-09-17T10:20:47;2.42;;;0.30;;
49460;SDS011;35355;49.198;-0.368;2022-09-17T10:23:17;0.65;;;0.17;;
49460;SDS011;35355;49.198;-0.368;2022-09-17T10:25:44;2.58;;;0.22;;
49460;SDS011;35355;49.198;-0.368;2022-09-17T10:30:54;1.95;;;0.10;;
49460;SDS011;35355;49.198;-0.368;2022-09-17T10:33:27;4.22;;;0.20;;
49460;SDS011;35355;49.198;-0.368;2022-09-17T10:35:58;2.25;;;0.43;;
49460;SDS011;35355;49.198;-0.368;2022-09-17T10:38:35;0.93;;;0.10;;
49460;SDS011;35355;49.198;-0.368;2022-09-17T10:43:49;3.42;;;0.20;;
49460;SDS011;35355;49.198;-0.368;2022-09-17T10:46:19;1.75;;;0.10;;
49460;SDS011;35355;49.198;-0.368;2022-09-17T10:48:55;1.42;;;0.20;;
49460;SDS011;35355;49.198;-0.368;2022-09-17T10:51:32;0.75;;;0.17;;
49460;SDS011;35355;49.198;-0.368;2022-09-17T10:56:28;0.40;;;0.10;;
49460;SDS011;35355;49.198;-0.368;2022-09-17T11:21:00;0.28;;;0.10;;
49460;SDS011;35355;49.198;-0.368;2022-09-17T11:26:28;0.90;;;0.10;;
49460;SDS011;35355;49.198;-0.368;2022-09-17T11:34:34;1.60;;;0.20;;
49460;SDS011;35355;49.198;-0.368;2022-09-17T11:42:41;1.98;;;0.25;;
49460;SDS011;35355;49.198;-0.368;2022-09-17T11:45:25;2.97;;;0.20;;
49460;SDS011;35355;49.198;-0.368;2022-09-17T11:48:00;1.13;;;0.10;;
49460;SDS011;35355;49.198;-0.368;2022-09-17T11:50:32;2.30;;;0.15;;
49460;SDS011;35355;49.198;-0.368;2022-09-17T11:53:07;0.53;;;0.10;;
49460;SDS011;35355;49.198;-0.368;2022-09-17T11:56:01;3.38;;;0.60;;
49460;SDS011;35355;49.198;-0.368;2022-09-17T12:06:56;1.38;;;0.25;;
49460;SDS011;35355;49.198;-0.368;2022-09-17T12:09:27;1.05;;;0.25;;
49460;SDS011;35355;49.198;-0.368;2022-09-17T12:12:05;0.45;;;0.20;;
49460;SDS011;35355;49.198;-0.368;2022-09-17T12:17:33;2.42;;;0.28;;
49460;SDS011;35355;49.198;-0.368;2022-09-17T12:20:06;2.47;;;0.20;;
49460;SDS011;35355;49.198;-0.368;2022-09-17T12:22:43;1.35;;;0.22;;
49460;SDS011;35355;49.198;-0.368;2022-09-17T12:25:12;2.53;;;0.10;;
49460;SDS011;35355;49.198;-0.368;2022-09-17T12:27:42;2.13;;;0.20;;
49460;SDS011;35355;49.198;-0.368;2022-09-17T12:30:19;1.27;;;0.20;;
49460;SDS011;35355;49.198;-0.368;2022-09-17T13:21:57;1.27;;;0.20;;
49460;SDS011;35355;49.198;-0.368;2022-09-17T13:24:17;1.35;;;0.20;;
49460;SDS011;35355;49.198;-0.368;2022-09-17T13:26:45;0.25;;;0.10;;
49460;SDS011;35355;49.198;-0.368;2022-09-17T13:29:11;1.75;;;0.20;;
49460;SDS011;35355;49.198;-0.368;2022-09-17T13:31:57;1.98;;;0.10;;
49460;SDS011;35355;49.198;-0.368;2022-09-17T13:34:27;1.35;;;0.10;;
49460;SDS011;35355;49.198;-0.368;2022-09-17T13:36:55;0.20;;;0.10;;
49460;SDS011;35355;49.198;-0.368;2022-09-17T13:42:15;0.35;;;0.10;;
49460;SDS011;35355;49.198;-0.368;2022-09-17T13:45:03;2.55;;;0.10;;
49460;SDS011;35355;49.198;-0.368;2022-09-17T13:47:38;1.70;;;0.20;;
49460;SDS011;35355;49.198;-0.368;2022-09-17T13:50:22;2.15;;;0.70;;
49460;SDS011;35355;49.198;-0.368;2022-09-17T14:11:02;3.63;;;0.10;;
49460;SDS011;35355;49.198;-0.368;2022-09-17T14:27:12;1.48;;;0.13;;
49460;SDS011;35355;49.198;-0.368;2022-09-17T14:30:01;1.05;;;0.10;;
49460;SDS011;35355;49.198;-0.368;2022-09-17T14:32:48;1.40;;;0.10;;
49460;SDS011;35355;49.198;-0.368;2022-09-17T14:35:16;1.58;;;0.10;;
49460;SDS011;35355;49.198;-0.368;2022-09-17T14:37:51;1.63;;;0.10;;
49460;SDS011;35355;49.198;-0.368;2022-09-17T14:40:22;2.10;;;0.15;;
49460;SDS011;35355;49.198;-0.368;2022-09-17T14:42:49;0.10;;;0.10;;
49460;SDS011;35355;49.198;-0.368;2022-09-17T14:45:20;1.00;;;0.20;;
49460;SDS011;35355;49.198;-0.368;2022-09-17T14:48:15;2.15;;;0.15;;
49460;SDS011;35355;49.198;-0.368;2022-09-17T14:50:51;1.55;;;0.15;;
49460;SDS011;35355;49.198;-0.368;2022-09-17T14:53:18;0.40;;;0.10;;
49460;SDS011;35355;49.198;-0.368;2022-09-17T14:55:50;1.42;;;0.40;;
49460;SDS011;35355;49.198;-0.368;2022-09-17T14:58:24;2.30;;;0.20;;
49460;SDS011;35355;49.198;-0.368;2022-09-17T15:00:53;0.75;;;0.20;;
49460;SDS011;35355;49.198;-0.368;2022-09-17T15:03:21;2.15;;;0.20;;
49460;SDS011;35355;49.198;-0.368;2022-09-17T15:05:48;2.85;;;0.43;;
49460;SDS011;35355;49.198;-0.368;2022-09-17T15:13:22;2.03;;;0.20;;
49460;SDS011;35355;49.198;-0.368;2022-09-17T15:15:52;2.45;;;0.20;;
49460;SDS011;35355;49.198;-0.368;2022-09-17T15:18:27;1.02;;;0.30;;
49460;SDS011;35355;49.198;-0.368;2022-09-17T15:20:57;1.00;;;0.17;;
49460;SDS011;35355;49.198;-0.368;2022-09-17T15:23:26;0.63;;;0.25;;
49460;SDS011;35355;49.198;-0.368;2022-09-17T15:25:53;1.83;;;0.10;;
49460;SDS011;35355;49.198;-0.368;2022-09-17T15:31:01;1.05;;;0.20;;
49460;SDS011;35355;49.198;-0.368;2022-09-17T15:33:30;1.20;;;0.20;;
49460;SDS011;35355;49.198;-0.368;2022-09-17T15:36:01;1.80;;;0.25;;
49460;SDS011;35355;49.198;-0.368;2022-09-17T15:38:39;1.13;;;0.10;;
49460;SDS011;35355;49.198;-0.368;2022-09-17T15:44:12;1.95;;;0.20;;
49460;SDS011;35355;49.198;-0.368;2022-09-17T15:46:41;0.35;;;0.20;;
49460;SDS011;35355;49.198;-0.368;2022-09-17T15:51:53;5.15;;;0.17;;
49460;SDS011;35355;49.198;-0.368;2022-09-17T15:54:27;1.50;;;0.25;;
49460;SDS011;35355;49.198;-0.368;2022-09-17T15:56:55;1.30;;;0.10;;
49460;SDS011;35355;49.198;-0.368;2022-09-17T15:59:28;0.73;;;0.10;;
49460;SDS011;35355;49.198;-0.368;2022-09-17T16:01:57;0.80;;;0.20;;
49460;SDS011;35355;49.198;-0.368;2022-09-17T16:04:29;0.40;;;0.10;;
49460;SDS011;35355;49.198;-0.368;2022-09-17T16:06:57;1.63;;;0.20;;
49460;SDS011;35355;49.198;-0.368;2022-09-17T16:09:37;1.60;;;0.45;;
49460;SDS011;35355;49.198;-0.368;2022-09-17T16:12:19;2.78;;;0.68;;
49460;SDS011;35355;49.198;-0.368;2022-09-17T16:14:50;0.38;;;0.10;;
49460;SDS011;35355;49.198;-0.368;2022-09-17T16:17:24;0.50;;;0.10;;
49460;SDS011;35355;49.198;-0.368;2022-09-17T16:20:05;0.77;;;0.10;;
49460;SDS011;35355;49.198;-0.368;2022-09-17T16:22:32;2.70;;;0.10;;
49460;SDS011;35355;49.198;-0.368;2022-09-17T16:24:58;3.30;;;0.10;;
49460;SDS011;35355;49.198;-0.368;2022-09-17T16:27:24;2.42;;;0.20;;
49460;SDS011;35355;49.198;-0.368;2022-09-17T16:29:56;2.35;;;0.10;;
49460;SDS011;35355;49.198;-0.368;2022-09-17T16:32:26;1.45;;;0.63;;
49460;SDS011;35355;49.198;-0.368;2022-09-17T16:34:52;4.63;;;0.20;;
49460;SDS011;35355;49.198;-0.368;2022-09-17T16:37:17;0.38;;;0.10;;
49460;SDS011;35355;49.198;-0.368;2022-09-17T16:39:42;1.67;;;0.30;;
49460;SDS011;35355;49.198;-0.368;2022-09-17T16:42:08;1.40;;;0.10;;
49460;SDS011;35355;49.198;-0.368;2022-09-17T16:44:33;1.67;;;0.10;;
49460;SDS011;35355;49.198;-0.368;2022-09-17T16:46:59;0.95;;;0.10;;
49460;SDS011;35355;49.198;-0.368;2022-09-17T16:49:24;4.00;;;0.40;;
49460;SDS011;35355;49.198;-0.368;2022-09-17T16:51:50;2.05;;;0.10;;
49460;SDS011;35355;49.198;-0.368;2022-09-17T16:54:15;2.10;;;0.20;;
49460;SDS011;35355;49.198;-0.368;2022-09-17T16:56:41;2.92;;;0.55;;
49460;SDS011;35355;49.198;-0.368;2022-09-17T16:59:06;0.95;;;0.10;;
49460;SDS011;35355;49.198;-0.368;2022-09-17T17:01:32;1.55;;;0.10;;
49460;SDS011;35355;49.198;-0.368;2022-09-17T17:03:57;1.63;;;0.28;;
49460;SDS011;35355;49.198;-0.368;2022-09-17T17:06:25;1.27;;;0.20;;
49460;SDS011;35355;49.198;-0.368;2022-09-17T17:08:50;3.20;;;0.20;;
49460;SDS011;35355;49.198;-0.368;2022-09-17T17:11:16;2.70;;;0.10;;
49460;SDS011;35355;49.198;-0.368;2022-09-17T17:13:42;1.50;;;0.30;;
49460;SDS011;35355;49.198;-0.368;2022-09-17T17:16:08;2.17;;;0.15;;
49460;SDS011;35355;49.198;-0.368;2022-09-17T17:18:35;1.05;;;0.25;;
49460;SDS011;35355;49.198;-0.368;2022-09-17T17:21:04;1.30;;;0.35;;
49460;SDS011;35355;49.198;-0.368;2022-09-17T17:23:30;0.90;;;0.25;;
49460;SDS011;35355;49.198;-0.368;2022-09-17T17:25:56;4.93;;;0.40;;
49460;SDS011;35355;49.198;-0.368;2022-09-17T17:28:21;3.10;;;0.45;;
49460;SDS011;35355;49.198;-0.368;2022-09-17T17:30:46;2.97;;;0.82;;
49460;SDS011;35355;49.198;-0.368;2022-09-17T17:33:12;4.50;;;1.70;;
49460;SDS011;35355;49.198;-0.368;2022-09-17T17:35:38;3.55;;;1.50;;
49460;SDS011;35355;49.198;-0.368;2022-09-17T17:38:03;10.88;;;3.17;;
49460;SDS011;35355;49.198;-0.368;2022-09-17T17:40:28;8.77;;;3.08;;
49460;SDS011;35355;49.198;-0.368;2022-09-17T17:42:54;12.70;;;4.20;;
49460;SDS011;35355;49.198;-0.368;2022-09-17T17:45:19;9.63;;;4.15;;
49460;SDS011;35355;49.198;-0.368;2022-09-17T17:47:45;10.50;;;4.47;;
49460;SDS011;35355;49.198;-0.368;2022-09-17T17:50:11;9.15;;;3.38;;
49460;SDS011;35355;49.198;-0.368;2022-09-17T17:52:36;12.82;;;5.35;;
49460;SDS011;35355;49.198;-0.368;2022-09-17T17:55:04;7.63;;;3.28;;
49460;SDS011;35355;49.198;-0.368;2022-09-17T17:57:30;9.73;;;2.90;;
49460;SDS011;35355;49.198;-0.368;2022-09-17T17:59:56;6.18;;;0.80;;
49460;SDS011;35355;49.198;-0.368;2022-09-17T18:02:21;3.50;;;0.98;;
49460;SDS011;35355;49.198;-0.368;2022-09-17T18:04:47;16.63;;;4.32;;
49460;SDS011;35355;49.198;-0.368;2022-09-17T18:07:12;18.33;;;5.75;;
49460;SDS011;35355;49.198;-0.368;2022-09-17T18:09:38;12.75;;;5.07;;
49460;SDS011;35355;49.198;-0.368;2022-09-17T18:12:03;8.57;;;2.97;;
49460;SDS011;35355;49.198;-0.368;2022-09-17T18:14:29;3.40;;;1.15;;
49460;SDS011;35355;49.198;-0.368;2022-09-17T18:16:54;2.13;;;0.80;;
49460;SDS011;35355;49.198;-0.368;2022-09-17T18:19:20;4.22;;;0.60;;
49460;SDS011;35355;49.198;-0.368;2022-09-17T18:21:45;2.00;;;0.50;;
49460;SDS011;35355;49.198;-0.368;2022-09-17T18:24:10;1.40;;;0.50;;
49460;SDS011;35355;49.198;-0.368;2022-09-17T18:26:36;2.78;;;0.60;;
49460;SDS011;35355;49.198;-0.368;2022-09-17T18:29:01;2.05;;;0.30;;
49460;SDS011;35355;49.198;-0.368;2022-09-17T18:31:31;0.20;;;0.10;;
49460;SDS011;35355;49.198;-0.368;2022-09-17T18:34:11;0.82;;;0.32;;
49460;SDS011;35355;49.198;-0.368;2022-09-17T18:36:39;0.95;;;0.20;;
49460;SDS011;35355;49.198;-0.368;2022-09-17T18:39:06;1.60;;;0.60;;
49460;SDS011;35355;49.198;-0.368;2022-09-17T18:41:35;1.27;;;0.20;;
49460;SDS011;35355;49.198;-0.368;2022-09-17T18:44:03;4.15;;;0.30;;
49460;SDS011;35355;49.198;-0.368;2022-09-17T18:46:29;2.88;;;0.47;;
49460;SDS011;35355;49.198;-0.368;2022-09-17T18:48:55;0.55;;;0.40;;
49460;SDS011;35355;49.198;-0.368;2022-09-17T18:51:22;3.65;;;0.50;;
49460;SDS011;35355;49.198;-0.368;2022-09-17T18:53:49;4.53;;;0.70;;
49460;SDS011;35355;49.198;-0.368;2022-09-17T18:58:52;3.95;;;0.35;;